CA-0521 weather

Mount Forest Roths' Field
Hanover, Ontario, Canada

Public forecast

Using degrees Celsius for public forecast. Weather courtesy of forecast.io.

METAR (pilot weather report)

Closest report is Wiarton Airport, 31.2 nm (57.7 km) N. Retrieved 2019/09/21 07:00 UTC (44 minutes ago):

CYVV 210700Z 11005KT 15SM FEW250 12/12 A3015 RMK CI1 SLP212

TAF (pilot weather forecast)

Forecast is more than 6 hours old.

Closest forecast is Wiarton Airport, 31.2 nm (57.7 km) N. Retrieved 2019/09/20 20:00 UTC (12 hours ago):

TAF CYVV 201938Z 2020/2023 VRB03KT P6SM FEW025 SCT150 BKN200 RMK NXT FCST WILL BE ISSUED AT 211045Z